METAR AND TAF INFORMATION
METAR FOR ESGG
ADDS - METARS form results

(0348 UTC 20 May 2022)
Data provider http://aviationweather.gov/metar/data/
 
METAR text: ESGG 200320Z 23004KT 6000 FEW003 SCT031 OVC064 09/08 Q1014
Conditions at: ESGG (GOTEBORG/LANDVET, SE) observed 0320 UTC 20 May 2022
Temperature: 9.0°C (48°F)
Dewpoint: 8.0°C (46°F) [RH = 93%]
Pressure (altimeter): 29.94 inches Hg (1014.0 mb)
Winds: from the SW (230 degrees) at 5 MPH (4 knots; 2.1 m/s)
Visibility: 4 miles ( 6 km)
Ceiling: 6400 feet AGL
Clouds: few clouds at 300 feet AGL
scattered clouds at 3100 feet AGL
overcast cloud deck at 6400 feet AGL
Weather: no significant weather observed at this time

METAR text: ESGG 200250Z 26003KT 9999 BKN004 OVC029 09/08 Q1014
Conditions at: ESGG (GOTEBORG/LANDVET, SE) observed 0250 UTC 20 May 2022
Temperature: 9.0°C (48°F)
Dewpoint: 8.0°C (46°F) [RH = 93%]
Pressure (altimeter): 29.94 inches Hg (1014.0 mb)
Winds: from the W (260 degrees) at 3 MPH (3 knots; 1.5 m/s)
Visibility: 6 or more miles (10+ km)
Ceiling: 400 feet AGL
Clouds: broken clouds at 400 feet AGL
overcast cloud deck at 2900 feet AGL
Weather: no significant weather observed at this time

Forecast for: ESGG (GOTEBORG/LANDVET, SE)
Text: TAF ESGG 200230Z 2003/2103 28006KT 9999 SCT007 BKN025
Forecast period: 0300 UTC 20 May 2022 to 0300 UTC 21 May 2022
Forecast type: FROM: standard forecast or significant change
Winds: from the W (280 degrees) at 7 MPH (6 knots; 3.1 m/s)
Visibility: 6 or more miles (10+ km)
Ceiling: 2500 feet AGL
Clouds: scattered clouds at 700 feet AGL
broken clouds at 2500 feet AGL
Weather: no significant weather forecast for this period
Text: BECMG 2003/2005 OVC006
Forecast period: 0300 to 0800 UTC 20 May 2022
Forecast type: BECOMING: Conditions expected to become as follows by 0500 UTC 20 May 2022
Winds: from the W (280 degrees) at 7 MPH (6 knots; 3.1 m/s)
Visibility: 6 or more miles (10+ km)
Ceiling: 600 feet AGL
Clouds: overcast cloud deck at 600 feet AGL
Weather: no significant weather forecast for this period
Text: BECMG 2008/2010 SCT012
Forecast period: 0800 UTC 20 May 2022 to 0300 UTC 21 May 2022
Forecast type: BECOMING: Conditions expected to become as follows by 1000 UTC 20 May 2022
Winds: from the W (280 degrees) at 7 MPH (6 knots; 3.1 m/s)
Visibility: 6 or more miles (10+ km)
Ceiling: at least 12,000 feet AGL
Clouds: scattered clouds at 1200 feet AGL
Weather: no significant weather forecast for this period

 AIRPORT MAP

 RUNWAY INFORMATION
Runway 03 Runway length 10823 ft Runway width 148 ft
Runway elevation 478 ft Runway displaced threshold 0 ft Runway heading 26
Runway 21 Runway length 10823 ft Runway width 148 ft
Runway elevation 506 ft Runway displaced threshold 0 ft Runway heading 206

 AIRPORT FREQUENCIES
Type ATIS Name ATIS Frequency 118.375 MHZ
Type GCCD Name GND Frequency 121.9 MHZ
Type TCA Name GOTEBORG A Frequency 124.675 MHZ
Type TWR Name TWR Frequency 118.6 MHZ

 AIRPORT NEAR NAVIGATION AIDS
Type VOR-DME Name Landvetter Frequency 114600 KHZ